Time;durP1;ratioP1;P1;durP2;ratioP2;P2;SDS_P1;SDS_P2;PMS_P1;PMS_P2;Temp;Humidity;BMP_temperature;BMP_pressure;BME280_temperature;BME280_humidity;BME280_pressure;Samples;Min_cycle;Max_cycle;Signal;HPM_P1;HPM_P2
2023/03/13 00:00:56;;;;;;;4.65;2.63;;;4.80;99.90;;;;;;5068901;28;20295;-75
2023/03/13 00:03:22;;;;;;;4.68;2.50;;;4.80;99.90;;;;;;5068642;28;20597;-75
2023/03/13 00:05:55;;;;;;;3.95;2.45;;;4.80;99.90;;;;;;5068827;28;20208;-75
2023/03/13 00:08:22;;;;;;;3.85;2.97;;;4.80;99.90;;;;;;5048659;28;20550;-75
2023/03/13 00:10:49;;;;;;;5.35;2.35;;;4.90;99.90;;;;;;5049049;28;20292;-75
2023/03/13 00:13:15;;;;;;;6.45;3.38;;;4.90;99.90;;;;;;5048420;28;20224;-75
2023/03/13 00:15:42;;;;;;;6.50;2.25;;;4.90;99.90;;;;;;5048362;28;20197;-75
2023/03/13 00:18:09;;;;;;;4.13;2.45;;;4.90;99.90;;;;;;5048713;28;20978;-75
2023/03/13 00:20:35;;;;;;;5.00;3.08;;;4.90;99.90;;;;;;5048855;28;20205;-75
2023/03/13 00:23:03;;;;;;;3.88;2.58;;;4.90;99.90;;;;;;5048438;28;20209;-75
2023/03/13 00:25:30;;;;;;;8.73;3.08;;;5.00;99.90;;;;;;5047497;28;20580;-75
2023/03/13 00:27:57;;;;;;;5.53;3.00;;;5.00;99.90;;;;;;5048465;28;20219;-75
2023/03/13 00:30:24;;;;;;;5.13;3.10;;;5.00;99.90;;;;;;5060185;28;20356;-75
2023/03/13 00:32:50;;;;;;;4.47;2.17;;;5.00;99.90;;;;;;5068088;28;20209;-77
2023/03/13 00:35:17;;;;;;;5.35;2.50;;;5.00;99.90;;;;;;5067314;28;20895;-75
2023/03/13 00:37:44;;;;;;;4.88;2.45;;;5.00;99.90;;;;;;5068428;28;20207;-75
2023/03/13 00:40:13;;;;;;;4.38;2.63;;;5.00;99.90;;;;;;5067679;28;20580;-75
2023/03/13 00:42:39;;;;;;;5.05;2.25;;;5.00;99.90;;;;;;5068148;28;20200;-75
2023/03/13 00:45:07;;;;;;;5.68;2.17;;;5.00;99.90;;;;;;5067194;28;20255;-75
2023/03/13 00:47:34;;;;;;;3.85;2.83;;;5.00;99.90;;;;;;5067644;28;20204;-74
2023/03/13 00:50:00;;;;;;;5.18;2.75;;;5.10;99.90;;;;;;5068025;28;20192;-74
2023/03/13 00:52:27;;;;;;;6.90;2.15;;;5.10;99.90;;;;;;5056013;28;20189;-74
2023/03/13 00:54:54;;;;;;;4.55;2.80;;;5.10;99.90;;;;;;5047397;28;20251;-74
2023/03/13 00:57:22;;;;;;;2.72;2.15;;;5.10;99.90;;;;;;5047700;28;20197;-74
2023/03/13 00:59:49;;;;;;;4.80;2.95;;;5.10;99.90;;;;;;5047947;28;20225;-74
2023/03/13 01:02:16;;;;;;;4.50;2.33;;;5.10;99.90;;;;;;5047564;28;20672;-74
2023/03/13 01:04:43;;;;;;;9.05;3.17;;;5.20;99.90;;;;;;5047864;28;20225;-74
2023/03/13 01:07:10;;;;;;;7.65;2.83;;;5.20;99.90;;;;;;5047522;28;20996;-76
2023/03/13 01:09:36;;;;;;;2.50;2.22;;;5.30;99.90;;;;;;5048028;28;20188;-74
2023/03/13 01:12:04;;;;;;;2.75;2.40;;;5.30;99.90;;;;;;5047132;28;20205;-74
2023/03/13 01:14:32;;;;;;;8.38;2.63;;;5.30;99.90;;;;;;5047959;28;20232;-74
2023/03/13 01:16:58;;;;;;;6.13;3.50;;;5.40;99.90;;;;;;5047892;28;20201;-74
2023/03/13 01:19:25;;;;;;;2.65;2.17;;;5.40;99.90;;;;;;5047567;28;20213;-74
2023/03/13 01:21:52;;;;;;;4.70;2.47;;;5.40;99.90;;;;;;5048009;28;20209;-74
2023/03/13 01:24:19;;;;;;;7.75;2.47;;;5.40;99.90;;;;;;5047272;28;20225;-74
2023/03/13 01:26:45;;;;;;;6.50;3.03;;;5.40;99.90;;;;;;5055475;28;20197;-73
2023/03/13 01:29:12;;;;;;;7.32;3.20;;;5.50;99.90;;;;;;5048124;28;20197;-73
2023/03/13 01:31:40;;;;;;;5.90;2.72;;;5.50;99.90;;;;;;5047842;28;20573;-74
2023/03/13 01:34:08;;;;;;;4.35;2.67;;;5.50;99.90;;;;;;5047030;28;20229;-74
2023/03/13 01:36:36;;;;;;;4.00;2.38;;;5.50;99.90;;;;;;5047332;28;20202;-74
2023/03/13 01:39:03;;;;;;;4.93;2.17;;;5.50;99.90;;;;;;5046899;28;20217;-74
2023/03/13 01:41:31;;;;;;;4.35;2.05;;;5.60;99.90;;;;;;5047228;28;20240;-75
2023/03/13 01:43:58;;;;;;;5.53;2.30;;;5.60;99.90;;;;;;5047075;28;20232;-74
2023/03/13 01:46:26;;;;;;;8.95;2.60;;;5.50;99.90;;;;;;5046934;28;20197;-74
2023/03/13 01:48:58;;;;;;;10.10;2.35;;;5.60;99.90;;;;;;5050938;28;20916;-74
2023/03/13 01:51:28;;;;;;;5.32;2.65;;;5.60;99.90;;;;;;5050876;28;20197;-74
2023/03/13 01:54:00;;;;;;;6.40;2.10;;;5.70;99.90;;;;;;5051037;28;20217;-74
2023/03/13 01:56:34;;;;;;;3.38;1.83;;;5.80;99.90;;;;;;5070621;28;20205;-74
2023/03/13 01:59:03;;;;;;;3.25;1.95;;;5.90;99.90;;;;;;5070939;28;20216;-74
2023/03/13 02:01:30;;;;;;;1.85;1.40;;;6.20;99.90;;;;;;5058921;28;20201;-74
2023/03/13 02:03:59;;;;;;;2.05;1.85;;;6.30;99.90;;;;;;5050859;28;20224;-74
2023/03/13 02:06:28;;;;;;;4.35;1.50;;;6.60;99.90;;;;;;5050758;28;20205;-74
2023/03/13 02:08:58;;;;;;;7.97;1.92;;;6.70;99.90;;;;;;5051243;28;20579;-74
2023/03/13 02:11:32;;;;;;;2.22;1.60;;;6.90;99.90;;;;;;5050134;28;20205;-74
2023/03/13 02:14:00;;;;;;;3.47;1.80;;;7.00;99.90;;;;;;5050012;28;20239;-74
2023/03/13 02:16:28;;;;;;;3.47;1.27;;;7.20;99.90;;;;;;5058867;28;20201;-75
2023/03/13 02:18:55;;;;;;;2.60;1.17;;;7.30;99.90;;;;;;5050382;28;20233;-74
2023/03/13 02:21:36;;;;;;;3.60;1.08;;;7.40;99.90;;;;;;5049883;28;20201;-74
2023/03/13 02:24:13;;;;;;;1.85;1.42;;;7.60;99.90;;;;;;5050027;28;20598;-74
2023/03/13 02:26:41;;;;;;;4.07;1.67;;;7.70;99.90;;;;;;5063610;28;20200;-74
2023/03/13 02:29:16;;;;;;;10.57;2.03;;;7.80;99.90;;;;;;5070484;28;20664;-74
2023/03/13 02:31:44;;;;;;;2.38;1.25;;;7.80;99.90;;;;;;5070528;28;20204;-74
2023/03/13 02:34:14;;;;;;;2.75;1.50;;;7.90;99.90;;;;;;5069633;28;20225;-74
2023/03/13 02:36:41;;;;;;;3.55;1.70;;;7.90;99.90;;;;;;5070112;28;20223;-74
2023/03/13 02:39:09;;;;;;;4.22;1.45;;;8.00;99.90;;;;;;5069840;28;20698;-74
2023/03/13 02:41:36;;;;;;;1.65;1.10;;;8.00;99.90;;;;;;5071179;28;20196;-75
2023/03/13 02:44:05;;;;;;;1.60;1.08;;;8.00;99.90;;;;;;5118551;22;20238;-69
2023/03/13 02:46:45;;;;;;;2.30;1.20;;;8.10;99.90;;;;;;5055336;28;20277;-69
2023/03/13 02:49:22;;;;;;;1.67;1.10;;;8.10;99.90;;;;;;5072613;28;20224;-69
2023/03/13 02:51:49;;;;;;;3.70;1.40;;;8.20;99.90;;;;;;5072352;28;20662;-69
2023/03/13 02:54:20;;;;;;;2.50;1.20;;;8.20;99.90;;;;;;5072068;28;20227;-69
2023/03/13 02:56:49;;;;;;;2.05;1.33;;;8.30;99.90;;;;;;5071967;28;20200;-69
2023/03/13 02:59:17;;;;;;;7.78;1.55;;;8.30;99.90;;;;;;5071624;28;20220;-69
2023/03/13 03:01:44;;;;;;;2.35;1.17;;;8.30;99.90;;;;;;5072104;28;20575;-69
2023/03/13 03:04:11;;;;;;;1.27;1.10;;;8.30;99.90;;;;;;5071827;28;20278;-69
2023/03/13 03:06:38;;;;;;;4.80;1.13;;;8.40;99.90;;;;;;5071854;28;20203;-70
2023/03/13 03:09:05;;;;;;;3.13;1.30;;;8.40;99.90;;;;;;5072382;28;20201;-69
2023/03/13 03:11:32;;;;;;;1.33;1.20;;;8.40;99.90;;;;;;5071815;28;20201;-69
2023/03/13 03:13:58;;;;;;;2.47;1.63;;;8.50;99.90;;;;;;5071792;28;20224;-69
2023/03/13 03:16:26;;;;;;;4.57;1.27;;;8.50;99.90;;;;;;5071946;28;20204;-70
2023/03/13 03:18:53;;;;;;;1.77;1.30;;;8.40;99.90;;;;;;5071913;28;20218;-70
2023/03/13 03:21:20;;;;;;;1.55;1.17;;;8.50;99.90;;;;;;5071848;28;20224;-69
2023/03/13 03:23:47;;;;;;;1.13;1.02;;;8.50;99.90;;;;;;5071549;28;20586;-69
2023/03/13 03:26:13;;;;;;;1.65;1.17;;;8.50;99.90;;;;;;5071494;28;20322;-69
2023/03/13 03:28:40;;;;;;;1.83;1.00;;;8.50;99.90;;;;;;5071572;28;20193;-69
2023/03/13 03:31:09;;;;;;;1.38;1.00;;;8.50;99.90;;;;;;5071740;28;20192;-69
2023/03/13 03:33:37;;;;;;;1.83;0.93;;;8.50;99.90;;;;;;5071216;28;20231;-69
2023/03/13 03:36:07;;;;;;;1.55;1.10;;;8.60;99.90;;;;;;5071172;28;20196;-69
2023/03/13 03:38:33;;;;;;;1.10;0.90;;;8.60;99.90;;;;;;5071308;28;20734;-69
2023/03/13 03:41:00;;;;;;;1.45;1.23;;;8.60;99.90;;;;;;5071586;28;20269;-69
2023/03/13 03:43:27;;;;;;;2.45;1.25;;;8.60;99.90;;;;;;5071044;28;20719;-69
2023/03/13 03:45:54;;;;;;;1.60;1.10;;;8.60;99.90;;;;;;5070648;28;20204;-69
2023/03/13 03:48:20;;;;;;;1.73;1.15;;;8.70;99.90;;;;;;5071162;28;20200;-69
2023/03/13 03:50:48;;;;;;;1.48;1.00;;;8.70;99.90;;;;;;5071124;28;20219;-69
2023/03/13 03:53:15;;;;;;;1.65;1.35;;;8.80;99.90;;;;;;5070996;28;20265;-69
2023/03/13 03:55:42;;;;;;;3.35;1.50;;;8.90;99.90;;;;;;5070664;28;20197;-69
2023/03/13 03:58:09;;;;;;;1.48;1.38;;;9.10;99.90;;;;;;5071201;28;20208;-69
2023/03/13 04:00:35;;;;;;;1.48;0.93;;;9.20;99.90;;;;;;5039368;28;20689;-69
2023/03/13 04:03:02;;;;;;;1.65;1.15;;;9.30;99.90;;;;;;5046508;28;20205;-69
2023/03/13 04:05:29;;;;;;;1.80;0.80;;;9.40;99.90;;;;;;5034017;28;20220;-70
2023/03/13 04:07:57;;;;;;;4.88;1.42;;;9.40;99.90;;;;;;5051164;28;20192;-70
2023/03/13 04:10:24;;;;;;;2.40;1.33;;;9.50;99.90;;;;;;5049986;28;20204;-70
2023/03/13 04:12:50;;;;;;;1.20;0.98;;;9.60;99.90;;;;;;5042368;28;20198;-69
2023/03/13 04:15:17;;;;;;;1.75;0.98;;;9.80;99.90;;;;;;5042110;28;20209;-69
2023/03/13 04:17:44;;;;;;;1.35;0.80;;;10.00;99.90;;;;;;5046282;28;20614;-69
2023/03/13 04:20:13;;;;;;;1.23;0.90;;;10.10;99.90;;;;;;5031010;28;20217;-69
2023/03/13 04:22:39;;;;;;;1.55;0.80;;;10.30;99.90;;;;;;5039104;28;20194;-69
2023/03/13 04:25:09;;;;;;;1.10;1.00;;;10.30;99.90;;;;;;5030462;28;20372;-70
2023/03/13 04:27:35;;;;;;;0.90;0.80;;;10.40;99.90;;;;;;5042098;28;20219;-69
2023/03/13 04:30:03;;;;;;;1.45;1.00;;;10.40;99.90;;;;;;5042320;28;20205;-70
2023/03/13 04:32:30;;;;;;;1.17;0.82;;;10.40;99.90;;;;;;5050003;28;20579;-70
2023/03/13 04:34:56;;;;;;;2.08;1.00;;;10.50;99.90;;;;;;5033334;28;20229;-70
2023/03/13 04:37:23;;;;;;;1.10;0.90;;;10.50;99.90;;;;;;5031668;28;20204;-70
2023/03/13 04:39:50;;;;;;;1.38;1.00;;;10.60;99.90;;;;;;5030376;28;20218;-70
2023/03/13 04:42:18;;;;;;;2.00;0.82;;;10.50;99.90;;;;;;5035458;28;20209;-69
2023/03/13 04:44:45;;;;;;;1.38;1.00;;;10.60;99.90;;;;;;5032416;28;20221;-69
2023/03/13 04:47:12;;;;;;;2.15;0.98;;;10.60;99.90;;;;;;5037223;28;20588;-69
2023/03/13 04:49:38;;;;;;;1.20;0.80;;;10.60;99.90;;;;;;5032690;28;20198;-70
2023/03/13 04:52:06;;;;;;;1.00;0.90;;;10.50;99.90;;;;;;5036630;28;20699;-69
2023/03/13 04:54:32;;;;;;;2.17;1.10;;;10.50;99.90;;;;;;5035864;28;20217;-70
2023/03/13 04:56:59;;;;;;;1.30;0.80;;;10.50;99.90;;;;;;5042662;28;20706;-69
2023/03/13 04:59:27;;;;;;;2.72;1.30;;;10.50;99.90;;;;;;5031098;28;20201;-68
2023/03/13 05:01:54;;;;;;;1.13;0.80;;;10.50;99.90;;;;;;5035430;28;20198;-69
2023/03/13 05:04:20;;;;;;;1.10;0.98;;;10.50;99.90;;;;;;5041490;28;20557;-69
2023/03/13 05:06:47;;;;;;;1.90;1.05;;;10.50;99.90;;;;;;5029233;28;20201;-68
2023/03/13 05:09:14;;;;;;;1.50;0.80;;;10.50;99.90;;;;;;5035061;28;20201;-70
2023/03/13 05:11:41;;;;;;;3.33;1.20;;;10.60;99.90;;;;;;5032580;28;20201;-69
2023/03/13 05:14:10;;;;;;;1.52;1.05;;;10.60;99.90;;;;;;5036620;28;20222;-69
2023/03/13 05:16:38;;;;;;;1.10;1.00;;;10.50;99.90;;;;;;5041572;28;20205;-69
2023/03/13 05:19:05;;;;;;;1.40;0.90;;;10.50;99.90;;;;;;5031905;28;20669;-70
2023/03/13 05:21:31;;;;;;;3.28;1.15;;;10.60;99.90;;;;;;5037573;28;20218;-69
2023/03/13 05:23:58;;;;;;;1.20;0.80;;;10.60;99.90;;;;;;5035774;28;20457;-70
2023/03/13 05:26:25;;;;;;;1.42;0.80;;;10.60;99.90;;;;;;5034488;28;20220;-70
2023/03/13 05:28:51;;;;;;;0.80;0.70;;;10.50;99.90;;;;;;5058360;28;20201;-70
2023/03/13 05:31:18;;;;;;;1.00;0.90;;;10.60;99.90;;;;;;5073105;28;20200;-71
2023/03/13 05:33:46;;;;;;;2.83;1.30;;;10.60;99.90;;;;;;5073332;28;20691;-71
2023/03/13 05:36:13;;;;;;;1.38;0.90;;;10.60;99.90;;;;;;5073611;28;20208;-70
2023/03/13 05:38:40;;;;;;;0.90;0.80;;;10.60;99.90;;;;;;5073436;28;20205;-70
2023/03/13 05:41:06;;;;;;;1.73;0.90;;;10.70;99.90;;;;;;5073300;28;20224;-70
2023/03/13 05:43:33;;;;;;;1.23;0.90;;;10.70;99.90;;;;;;5072895;28;20224;-70
2023/03/13 05:46:00;;;;;;;1.10;0.88;;;10.70;99.90;;;;;;5073314;28;20679;-70
2023/03/13 05:48:26;;;;;;;0.80;0.80;;;10.80;99.90;;;;;;5073528;28;20196;-70
2023/03/13 05:50:54;;;;;;;1.42;1.05;;;10.90;99.90;;;;;;5073361;28;20204;-71
2023/03/13 05:53:21;;;;;;;1.02;0.80;;;10.90;99.90;;;;;;5073329;28;20224;-70
2023/03/13 05:55:48;;;;;;;0.90;0.80;;;10.90;99.90;;;;;;5072872;28;20200;-70
2023/03/13 05:58:14;;;;;;;1.35;0.80;;;10.90;99.90;;;;;;5073590;28;20200;-70
2023/03/13 06:00:42;;;;;;;0.80;0.68;;;10.90;99.90;;;;;;5072890;28;20224;-71
2023/03/13 06:03:09;;;;;;;2.55;1.10;;;10.90;99.90;;;;;;5073118;28;20306;-71
2023/03/13 06:05:35;;;;;;;0.88;0.70;;;11.00;99.90;;;;;;5072352;28;20254;-71
2023/03/13 06:08:04;;;;;;;1.98;0.80;;;11.00;99.90;;;;;;5073389;28;20207;-70
2023/03/13 06:10:30;;;;;;;1.10;0.90;;;11.00;99.90;;;;;;5071084;28;20197;-71
2023/03/13 06:12:57;;;;;;;0.90;0.80;;;11.00;99.90;;;;;;5052987;28;20201;-70
2023/03/13 06:15:24;;;;;;;1.63;0.80;;;11.10;99.90;;;;;;5051551;28;20205;-70
2023/03/13 06:17:50;;;;;;;1.33;1.23;;;11.10;99.90;;;;;;5041305;28;20197;-70
2023/03/13 06:20:17;;;;;;;0.98;0.80;;;11.20;99.90;;;;;;5041329;28;20222;-70
2023/03/13 06:22:44;;;;;;;0.80;0.70;;;11.20;99.90;;;;;;5044649;28;20197;-70
2023/03/13 06:25:12;;;;;;;1.30;0.80;;;11.20;99.90;;;;;;5045213;28;20781;-70
2023/03/13 06:27:40;;;;;;;1.23;0.80;;;11.20;99.90;;;;;;5046853;28;20205;-70
2023/03/13 06:30:09;;;;;;;1.05;0.95;;;11.10;99.90;;;;;;5072979;28;20204;-70
2023/03/13 06:32:36;;;;;;;1.38;0.90;;;11.20;99.90;;;;;;5071618;28;20201;-70
2023/03/13 06:35:02;;;;;;;1.05;0.80;;;11.20;99.90;;;;;;5072308;28;20722;-70
2023/03/13 06:37:30;;;;;;;1.05;0.85;;;11.30;99.90;;;;;;5072630;28;20666;-70
2023/03/13 06:39:56;;;;;;;0.93;0.80;;;11.30;99.90;;;;;;5072434;28;20200;-70
2023/03/13 06:42:25;;;;;;;1.33;0.82;;;11.30;99.90;;;;;;5072318;28;20220;-71
2023/03/13 06:44:51;;;;;;;1.98;1.65;;;11.40;99.90;;;;;;5071794;28;20278;-71
2023/03/13 06:47:18;;;;;;;1.10;0.80;;;11.40;99.90;;;;;;5072667;28;20211;-70
2023/03/13 06:49:44;;;;;;;1.00;0.80;;;11.40;99.90;;;;;;5072309;28;20222;-70
2023/03/13 06:52:11;;;;;;;1.33;0.70;;;11.40;99.90;;;;;;5072589;28;20196;-70
2023/03/13 06:54:38;;;;;;;0.93;0.77;;;11.40;99.90;;;;;;5071568;28;20659;-70
2023/03/13 06:57:04;;;;;;;0.90;0.70;;;11.40;99.90;;;;;;5071921;28;20219;-70
2023/03/13 06:59:33;;;;;;;1.67;0.90;;;11.40;99.90;;;;;;5072126;28;20204;-70
2023/03/13 07:01:59;;;;;;;1.00;0.90;;;11.40;99.90;;;;;;5072347;28;20305;-71
2023/03/13 07:04:27;;;;;;;1.13;0.80;;;11.40;99.90;;;;;;5273904;22;20930;-70
2023/03/13 07:06:53;;;;;;;1.20;0.98;;;11.40;99.90;;;;;;5072071;28;20212;-71
2023/03/13 07:09:20;;;;;;;1.27;0.85;;;11.40;99.90;;;;;;5064613;28;20587;-70
2023/03/13 07:11:48;;;;;;;0.90;0.80;;;11.40;99.90;;;;;;5064918;28;20189;-71
2023/03/13 07:14:14;;;;;;;1.70;0.85;;;11.40;99.90;;;;;;5064684;28;20653;-71
2023/03/13 07:16:42;;;;;;;0.90;0.80;;;11.40;99.90;;;;;;5043142;28;20243;-70
2023/03/13 07:19:09;;;;;;;0.95;0.80;;;11.40;99.90;;;;;;5052093;28;20607;-70
2023/03/13 07:21:36;;;;;;;1.30;0.90;;;11.50;99.90;;;;;;5049295;28;20316;-70
2023/03/13 07:24:03;;;;;;;1.52;0.98;;;11.50;99.90;;;;;;5043329;28;20746;-71
2023/03/13 07:26:29;;;;;;;2.15;0.90;;;11.50;99.90;;;;;;5070433;28;20695;-70
2023/03/13 07:28:56;;;;;;;1.10;0.80;;;11.50;99.90;;;;;;5051560;28;20695;-71
2023/03/13 07:31:23;;;;;;;1.00;0.80;;;11.50;99.90;;;;;;5051430;28;20197;-71
2023/03/13 07:33:55;;;;;;;0.80;0.65;;;11.60;99.90;;;;;;5051087;28;20221;-71
2023/03/13 07:36:22;;;;;;;1.15;0.85;;;11.60;99.90;;;;;;5051085;28;20201;-70
2023/03/13 07:38:49;;;;;;;2.25;0.95;;;11.70;99.90;;;;;;5039618;28;20211;-70
2023/03/13 07:41:16;;;;;;;0.80;0.70;;;11.70;99.90;;;;;;5054974;28;20660;-71
2023/03/13 07:43:43;;;;;;;1.40;0.95;;;11.70;99.90;;;;;;5057603;28;20700;-70
2023/03/13 07:46:12;;;;;;;1.10;0.80;;;11.70;99.90;;;;;;5031757;28;20673;-71
2023/03/13 07:48:40;;;;;;;1.00;0.80;;;11.80;99.90;;;;;;5033795;28;20205;-71
2023/03/13 07:51:12;;;;;;;0.98;0.88;;;11.80;99.90;;;;;;5043047;28;20581;-70
2023/03/13 07:53:39;;;;;;;1.00;0.80;;;11.80;99.90;;;;;;5050600;28;20232;-70
2023/03/13 07:56:08;;;;;;;1.23;0.90;;;11.80;99.90;;;;;;5045236;28;20202;-70
2023/03/13 07:58:36;;;;;;;1.45;1.08;;;11.80;99.90;;;;;;5047525;28;20201;-70
2023/03/13 08:01:08;;;;;;;1.30;0.93;;;11.80;99.90;;;;;;5039279;28;20217;-70
2023/03/13 08:03:35;;;;;;;1.50;0.90;;;11.90;99.90;;;;;;5058757;28;20228;-70
2023/03/13 08:06:04;;;;;;;0.93;0.70;;;11.90;99.90;;;;;;5070764;28;20215;-70
2023/03/13 08:08:32;;;;;;;1.10;0.70;;;12.00;99.90;;;;;;5061762;28;20205;-71
2023/03/13 08:11:03;;;;;;;0.75;0.60;;;12.00;99.90;;;;;;5039007;28;20205;-71
2023/03/13 08:13:30;;;;;;;0.80;0.70;;;12.10;99.90;;;;;;5039819;28;20221;-71
2023/03/13 08:16:04;;;;;;;1.05;0.80;;;12.10;99.90;;;;;;5046078;28;20202;-71
2023/03/13 08:18:33;;;;;;;1.23;0.93;;;12.10;99.90;;;;;;5047972;28;20205;-70
2023/03/13 08:21:02;;;;;;;1.02;0.90;;;12.20;99.90;;;;;;5042170;28;20582;-70
2023/03/13 08:23:29;;;;;;;1.33;0.80;;;12.30;99.90;;;;;;5050439;28;20270;-71
2023/03/13 08:26:02;;;;;;;0.93;0.82;;;12.50;99.90;;;;;;5041885;28;20227;-70
2023/03/13 08:28:28;;;;;;;1.25;1.00;;;12.70;99.90;;;;;;5050206;28;20208;-70
2023/03/13 08:30:55;;;;;;;1.20;1.00;;;12.90;99.90;;;;;;5034179;28;20220;-70
2023/03/13 08:33:22;;;;;;;1.00;0.90;;;13.10;99.90;;;;;;5050454;28;20220;-70
2023/03/13 08:35:48;;;;;;;1.20;1.00;;;13.10;99.90;;;;;;5041350;28;20690;-70
2023/03/13 08:38:15;;;;;;;1.02;0.93;;;13.10;99.90;;;;;;5042298;28;20809;-70
2023/03/13 08:40:42;;;;;;;1.47;1.00;;;13.30;99.90;;;;;;5039501;28;20205;-70
2023/03/13 08:43:10;;;;;;;0.90;0.80;;;13.30;99.90;;;;;;5078075;22;20528;-92
2023/03/13 08:45:37;;;;;;;0.80;0.73;;;13.30;99.90;;;;;;5086027;28;20467;-93
2023/03/13 08:48:04;;;;;;;0.95;0.85;;;13.20;99.90;;;;;;5082628;28;20290;-93
2023/03/13 08:50:30;;;;;;;1.10;0.98;;;13.20;99.90;;;;;;5086355;28;20283;-93
2023/03/13 08:52:57;;;;;;;1.35;1.23;;;13.20;99.90;;;;;;5088216;28;20220;-93
2023/03/13 08:55:24;;;;;;;1.15;0.90;;;13.20;99.90;;;;;;5094244;28;20211;-91
2023/03/13 08:57:51;;;;;;;1.27;0.90;;;13.30;99.90;;;;;;5094826;28;20203;-93
2023/03/13 09:00:20;;;;;;;1.23;0.93;;;13.30;99.90;;;;;;5094599;28;20477;-93
2023/03/13 09:02:47;;;;;;;1.20;1.03;;;13.30;99.90;;;;;;5092040;28;20556;-92
2023/03/13 09:05:14;;;;;;;1.75;0.90;;;13.30;99.90;;;;;;5093521;28;20454;-92
2023/03/13 09:07:41;;;;;;;2.10;1.03;;;13.40;99.90;;;;;;5090599;28;20204;-93
2023/03/13 09:10:09;;;;;;;0.80;0.70;;;13.30;99.90;;;;;;5082614;28;20446;-92
2023/03/13 09:12:36;;;;;;;1.30;0.90;;;13.40;99.90;;;;;;5081081;28;20284;-90
2023/03/13 09:15:03;;;;;;;2.07;1.10;;;13.50;99.90;;;;;;5081315;28;20475;-92
2023/03/13 09:17:31;;;;;;;2.03;1.00;;;13.50;99.90;;;;;;5092892;28;20435;-93
2023/03/13 09:19:58;;;;;;;2.23;1.00;;;13.50;99.90;;;;;;5097402;28;20471;-95
2023/03/13 09:22:25;;;;;;;0.93;0.83;;;13.50;99.90;;;;;;5091370;28;20463;-93
2023/03/13 09:24:52;;;;;;;2.40;2.20;;;13.50;99.90;;;;;;5074346;28;20452;-93
2023/03/13 09:27:19;;;;;;;0.97;0.80;;;13.60;99.90;;;;;;5065304;28;20463;-92
2023/03/13 09:29:46;;;;;;;1.13;1.00;;;13.70;99.90;;;;;;5063652;28;20474;-94
2023/03/13 09:32:13;;;;;;;2.30;1.00;;;13.90;99.90;;;;;;5076231;23;20498;-75
2023/03/13 09:34:41;;;;;;;1.00;0.80;;;14.00;99.90;;;;;;5043536;28;20498;-75
2023/03/13 09:37:08;;;;;;;2.50;0.90;;;14.10;99.90;;;;;;5049329;28;20451;-75
2023/03/13 09:39:34;;;;;;;3.10;1.13;;;14.10;99.90;;;;;;5041068;28;20491;-75
2023/03/13 09:42:10;;;;;;;1.13;1.00;;;14.20;99.90;;;;;;5062309;28;20486;-75
2023/03/13 09:44:43;;;;;;;1.10;0.90;;;14.40;99.90;;;;;;5069449;28;20470;-75
2023/03/13 09:47:18;;;;;;;1.00;0.90;;;14.70;99.90;;;;;;5069457;28;20484;-75
2023/03/13 09:49:50;;;;;;;1.23;1.10;;;15.00;99.90;;;;;;5069297;28;20932;-75
2023/03/13 09:52:19;;;;;;;1.30;1.17;;;15.60;99.90;;;;;;5069272;28;20461;-75
2023/03/13 09:54:50;;;;;;;0.93;0.83;;;16.20;99.90;;;;;;5068925;28;20514;-75
2023/03/13 09:57:23;;;;;;;1.17;0.90;;;17.00;99.90;;;;;;5063620;28;20472;-75
2023/03/13 09:59:57;;;;;;;1.97;1.13;;;18.00;99.90;;;;;;5049578;28;20536;-75
2023/03/13 10:02:29;;;;;;;1.00;0.90;;;18.70;99.90;;;;;;5049375;28;20484;-75
2023/03/13 10:05:06;;;;;;;1.80;0.93;;;18.80;99.90;;;;;;5049281;28;20490;-75
2023/03/13 10:07:33;;;;;;;1.53;1.20;;;18.30;99.90;;;;;;5049337;28;20471;-75
2023/03/13 10:10:01;;;;;;;1.53;1.17;;;18.40;99.90;;;;;;5049028;28;20460;-75
2023/03/13 10:12:29;;;;;;;1.43;1.27;;;19.30;99.90;;;;;;5048939;28;20460;-75
2023/03/13 10:15:16;;;;;;;1.93;1.10;;;20.10;99.90;;;;;;5052301;28;20482;-75
2023/03/13 10:17:43;;;;;;;1.93;1.53;;;21.00;99.90;;;;;;5051105;28;20459;-75
2023/03/13 10:20:22;;;;;;;1.60;1.30;;;22.40;99.90;;;;;;5046427;28;20463;-75
2023/03/13 10:22:52;;;;;;;3.17;1.10;;;22.60;98.60;;;;;;5052553;28;20475;-75
2023/03/13 10:25:28;;;;;;;1.63;1.20;;;22.50;98.90;;;;;;5043869;28;20493;-75
2023/03/13 10:27:56;;;;;;;1.00;0.90;;;23.00;97.90;;;;;;5038501;28;20455;-75
2023/03/13 10:30:26;;;;;;;2.03;1.20;;;23.20;97.10;;;;;;5050960;28;20463;-75
2023/03/13 10:33:00;;;;;;;1.00;0.80;;;22.20;97.80;;;;;;5051526;28;20459;-75
2023/03/13 10:35:35;;;;;;;1.43;1.20;;;22.70;97.70;;;;;;5058723;28;20457;-75
2023/03/13 10:38:10;;;;;;;1.57;1.47;;;23.10;97.00;;;;;;5044492;28;20463;-75
2023/03/13 10:40:37;;;;;;;2.83;1.20;;;23.00;96.50;;;;;;5068864;28;20462;-76
2023/03/13 10:43:06;;;;;;;2.17;1.27;;;22.90;96.60;;;;;;5071975;28;20532;-75
2023/03/13 10:45:35;;;;;;;1.73;1.10;;;23.20;96.30;;;;;;5054640;28;20547;-75
2023/03/13 10:48:10;;;;;;;1.53;1.30;;;22.10;97.20;;;;;;5048384;28;20465;-75
2023/03/13 10:50:43;;;;;;;1.30;1.20;;;20.90;98.30;;;;;;5071724;28;20462;-75
2023/03/13 10:53:25;;;;;;;2.70;1.70;;;20.20;99.00;;;;;;5072227;28;20482;-75
2023/03/13 10:55:54;;;;;;;2.50;1.20;;;19.70;99.40;;;;;;5071414;28;20466;-76
2023/03/13 10:58:26;;;;;;;1.27;1.10;;;19.00;99.90;;;;;;5071542;28;20458;-73
2023/03/13 11:01:10;;;;;;;7.10;1.50;;;18.50;99.90;;;;;;5073264;28;20482;-73
2023/03/13 11:03:36;;;;;;;2.03;1.40;;;18.30;99.90;;;;;;5072629;28;20497;-74
2023/03/13 11:06:05;;;;;;;1.43;1.33;;;17.90;99.90;;;;;;5073271;28;20632;-74
2023/03/13 11:08:35;;;;;;;1.40;1.03;;;17.90;99.90;;;;;;5073245;28;20458;-74
2023/03/13 11:11:04;;;;;;;1.33;1.23;;;18.00;99.90;;;;;;5060757;28;20463;-74
2023/03/13 11:13:36;;;;;;;1.50;1.10;;;18.10;99.90;;;;;;5052490;28;20483;-75
2023/03/13 11:16:18;;;;;;;1.23;1.07;;;17.70;99.90;;;;;;5051123;28;20460;-75
2023/03/13 11:19:08;;;;;;;1.23;1.13;;;17.70;99.90;;;;;;5051010;28;20460;-75
2023/03/13 11:21:44;;;;;;;3.40;1.10;;;17.60;99.90;;;;;;5051872;28;20456;-76
2023/03/13 11:24:17;;;;;;;1.17;1.00;;;17.50;99.90;;;;;;5051514;28;20483;-75
2023/03/13 11:26:55;;;;;;;2.00;1.20;;;17.30;99.90;;;;;;5051235;28;20470;-75
2023/03/13 11:29:28;;;;;;;1.20;1.10;;;17.40;99.90;;;;;;5058356;28;20462;-75
2023/03/13 11:31:59;;;;;;;1.47;1.37;;;17.30;99.90;;;;;;5068881;28;20514;-75
2023/03/13 11:34:31;;;;;;;1.27;1.13;;;17.30;99.90;;;;;;5051345;28;20479;-75
2023/03/13 11:37:02;;;;;;;1.33;1.23;;;17.40;99.90;;;;;;5054295;28;20911;-75
2023/03/13 11:39:43;;;;;;;1.60;1.20;;;17.60;99.90;;;;;;5064344;28;20498;-75
2023/03/13 11:42:33;;;;;;;1.40;1.10;;;17.60;99.90;;;;;;5051639;28;20479;-75
2023/03/13 11:45:08;;;;;;;1.20;1.10;;;17.90;99.90;;;;;;5050956;28;20486;-75
2023/03/13 11:47:49;;;;;;;1.30;1.10;;;20.00;99.90;;;;;;5059194;28;20557;-75
2023/03/13 11:50:28;;;;;;;1.40;1.10;;;21.90;98.50;;;;;;5071606;28;20454;-75
2023/03/13 11:53:15;;;;;;;2.43;2.23;;;22.30;97.70;;;;;;5071146;28;20458;-75
2023/03/13 11:55:50;;;;;;;1.70;1.60;;;23.20;97.30;;;;;;5053121;28;20475;-76
2023/03/13 11:58:30;;;;;;;1.77;1.20;;;24.60;96.30;;;;;;5051002;28;20467;-73
2023/03/13 12:01:01;;;;;;;1.27;1.17;;;25.60;94.60;;;;;;5053486;28;20459;-74
2023/03/13 12:03:39;;;;;;;1.30;1.20;;;25.60;93.70;;;;;;5071279;28;20562;-73
2023/03/13 12:06:12;;;;;;;1.47;1.30;;;25.60;93.00;;;;;;5070818;28;20830;-74
2023/03/13 12:08:44;;;;;;;1.50;1.17;;;26.00;92.40;;;;;;5070543;28;20560;-74
2023/03/13 12:11:16;;;;;;;1.83;1.10;;;26.10;92.40;;;;;;5070747;28;20459;-74
2023/03/13 12:13:50;;;;;;;1.83;1.27;;;26.10;91.80;;;;;;5070170;28;20930;-74
2023/03/13 12:16:19;;;;;;;1.40;1.07;;;25.70;92.10;;;;;;5070805;28;20454;-76
2023/03/13 12:18:46;;;;;;;1.60;1.27;;;24.70;92.90;;;;;;5061566;28;20521;-76
2023/03/13 12:21:19;;;;;;;1.10;1.00;;;24.50;92.80;;;;;;5050684;28;20863;-75
2023/03/13 12:23:55;;;;;;;1.30;1.20;;;25.30;92.60;;;;;;5067496;28;20486;-75
2023/03/13 12:26:27;;;;;;;0.97;0.87;;;25.50;92.20;;;;;;5069989;28;20454;-76
2023/03/13 12:29:06;;;;;;;1.97;1.13;;;26.00;91.60;;;;;;5070298;28;20468;-75
2023/03/13 12:31:37;;;;;;;1.23;1.13;;;25.40;91.80;;;;;;5069189;28;20501;-75
2023/03/13 12:34:15;;;;;;;1.53;1.30;;;25.30;92.00;;;;;;5069957;28;20473;-75
2023/03/13 12:36:46;;;;;;;1.57;0.93;;;24.10;91.90;;;;;;5061340;28;20536;-75
2023/03/13 12:39:26;;;;;;;1.47;1.20;;;23.90;92.30;;;;;;5050079;28;20463;-75
2023/03/13 12:42:09;;;;;;;1.13;0.83;;;24.30;92.50;;;;;;5049794;28;20851;-75
2023/03/13 12:44:36;;;;;;;1.23;1.13;;;24.60;91.50;;;;;;5057566;28;20487;-75
2023/03/13 12:47:09;;;;;;;1.67;1.10;;;25.10;91.10;;;;;;5070006;28;20463;-75
2023/03/13 12:50:10;;;;;;;1.73;1.03;;;25.60;91.10;;;;;;5070122;28;20833;-75
2023/03/13 12:53:06;;;;;;;1.57;1.20;;;26.20;90.50;;;;;;5062928;28;20598;-75
2023/03/13 12:56:05;;;;;;;1.40;1.07;;;26.10;90.20;;;;;;5069639;28;20463;-75
2023/03/13 12:58:44;;;;;;;1.40;1.30;;;26.40;89.50;;;;;;5067987;28;20469;-75
2023/03/13 13:01:16;;;;;;;1.10;1.00;;;26.70;89.10;;;;;;5069851;28;20520;-75